Time;durP1;ratioP1;P1;durP2;ratioP2;P2;SDS_P1;SDS_P2;PMS_P1;PMS_P2;Temp;Humidity;BMP_temperature;BMP_pressure;BME280_temperature;BME280_humidity;BME280_pressure;Samples;Min_cycle;Max_cycle;Signal;HPM_P1;HPM_P2
2023/05/22 00:00:51;;;;;;;3.25;2.90;;;12.30;76.00;;;;;;5036219;28;20060;-79
2023/05/22 00:03:17;;;;;;;3.20;2.90;;;12.30;75.80;;;;;;5036217;28;20036;-79
2023/05/22 00:05:42;;;;;;;4.50;2.95;;;12.30;75.50;;;;;;5018344;28;20021;-80
2023/05/22 00:08:10;;;;;;;2.85;2.55;;;12.20;75.30;;;;;;5036138;28;20479;-80
2023/05/22 00:10:39;;;;;;;3.72;2.75;;;12.20;75.00;;;;;;5018199;28;20506;-80
2023/05/22 00:13:05;;;;;;;5.78;3.53;;;12.30;75.00;;;;;;5018295;28;20363;-80
2023/05/22 00:15:31;;;;;;;3.50;2.90;;;12.30;74.70;;;;;;5018160;28;20026;-80
2023/05/22 00:17:57;;;;;;;5.97;3.13;;;12.30;74.30;;;;;;5021500;28;20139;-79
2023/05/22 00:20:23;;;;;;;3.80;3.10;;;12.30;74.00;;;;;;5055840;28;20108;-79
2023/05/22 00:22:48;;;;;;;4.45;3.08;;;12.30;73.90;;;;;;5055846;28;20582;-79
2023/05/22 00:25:18;;;;;;;4.40;2.80;;;12.30;73.60;;;;;;5037930;28;20123;-79
2023/05/22 00:27:43;;;;;;;8.32;3.08;;;12.30;73.30;;;;;;5055623;28;20031;-79
2023/05/22 00:30:09;;;;;;;2.97;2.60;;;12.30;73.10;;;;;;5051306;28;20104;-80
2023/05/22 00:32:35;;;;;;;6.97;3.20;;;12.30;72.90;;;;;;5037212;28;20017;-79
2023/05/22 00:35:01;;;;;;;3.88;2.80;;;12.30;73.40;;;;;;5055577;28;20021;-80
2023/05/22 00:37:26;;;;;;;4.43;3.00;;;12.30;72.30;;;;;;5055399;28;20454;-80
2023/05/22 00:39:52;;;;;;;4.07;3.08;;;12.30;72.30;;;;;;5055385;28;20028;-80
2023/05/22 00:42:18;;;;;;;4.45;2.92;;;12.30;72.50;;;;;;5037467;28;20396;-81
2023/05/22 00:44:43;;;;;;;3.67;2.60;;;12.30;72.60;;;;;;5055360;28;20108;-80
2023/05/22 00:47:09;;;;;;;4.40;3.10;;;12.30;72.50;;;;;;5037362;28;20504;-79
2023/05/22 00:49:34;;;;;;;6.97;2.90;;;12.20;72.50;;;;;;5037415;28;20013;-79
2023/05/22 00:52:01;;;;;;;5.78;2.90;;;12.20;72.60;;;;;;5055201;28;20021;-78
2023/05/22 00:54:28;;;;;;;6.03;3.13;;;12.20;73.00;;;;;;5055273;28;20108;-79
2023/05/22 00:56:54;;;;;;;5.25;3.22;;;12.10;73.20;;;;;;5055085;28;20025;-79
2023/05/22 00:59:20;;;;;;;6.30;2.97;;;12.10;73.40;;;;;;5037198;28;20021;-78
2023/05/22 01:01:46;;;;;;;3.97;3.58;;;12.10;73.40;;;;;;5036939;28;20060;-79
2023/05/22 01:04:13;;;;;;;4.80;3.20;;;12.10;73.60;;;;;;5037177;28;20021;-80
2023/05/22 01:06:40;;;;;;;8.50;3.03;;;12.00;73.60;;;;;;5054766;28;20025;-79
2023/05/22 01:09:06;;;;;;;5.93;3.28;;;12.00;73.80;;;;;;5054824;28;20053;-79
2023/05/22 01:12:06;;;;;;;5.00;3.08;;;12.00;74.70;;;;;;5036828;28;20029;-80
2023/05/22 01:14:32;;;;;;;4.10;2.95;;;12.00;74.10;;;;;;5054906;28;20029;-80
2023/05/22 01:17:27;;;;;;;6.88;3.75;;;11.90;74.10;;;;;;5036783;28;20041;-81
2023/05/22 01:20:04;;;;;;;4.13;3.03;;;11.90;74.20;;;;;;5036930;28;20128;-80
2023/05/22 01:22:57;;;;;;;4.20;3.38;;;11.90;74.30;;;;;;5036768;28;20025;-80
2023/05/22 01:25:34;;;;;;;5.83;3.30;;;11.90;74.50;;;;;;5054619;28;20025;-80
2023/05/22 01:28:24;;;;;;;5.00;3.05;;;11.80;74.40;;;;;;5036559;28;20275;-80
2023/05/22 01:31:01;;;;;;;10.45;3.28;;;11.80;74.40;;;;;;5054421;28;20079;-80
2023/05/22 01:33:35;;;;;;;4.38;2.97;;;11.70;74.90;;;;;;5036440;28;20068;-79
2023/05/22 01:36:02;;;;;;;3.42;2.90;;;11.70;75.10;;;;;;5054316;28;20073;-80
2023/05/22 01:38:29;;;;;;;7.18;2.60;;;11.60;75.50;;;;;;5036504;28;20028;-80
2023/05/22 01:40:56;;;;;;;5.80;3.10;;;11.60;75.90;;;;;;5036320;28;20486;-79
2023/05/22 01:43:22;;;;;;;4.00;2.95;;;11.60;75.80;;;;;;5035197;28;20044;-80
2023/05/22 01:45:48;;;;;;;9.40;3.33;;;11.50;75.90;;;;;;5036245;28;20021;-79
2023/05/22 01:48:14;;;;;;;6.82;3.15;;;11.50;76.80;;;;;;5036394;28;20032;-79
2023/05/22 01:50:40;;;;;;;7.10;3.28;;;11.50;76.10;;;;;;5036162;28;20056;-79
2023/05/22 01:53:22;;;;;;;3.28;2.70;;;11.50;76.20;;;;;;5036334;28;20478;-79
2023/05/22 01:55:56;;;;;;;3.97;2.90;;;11.50;76.00;;;;;;5054032;28;20016;-79
2023/05/22 01:58:54;;;;;;;6.03;3.20;;;11.50;76.40;;;;;;5054000;28;20103;-79
2023/05/22 02:01:25;;;;;;;4.57;2.80;;;11.40;76.60;;;;;;5053840;28;20033;-79
2023/05/22 02:03:56;;;;;;;4.25;3.05;;;11.40;76.70;;;;;;5053984;28;20436;-79
2023/05/22 02:06:24;;;;;;;4.07;2.90;;;11.30;77.10;;;;;;5053827;28;20021;-79
2023/05/22 02:08:51;;;;;;;7.97;3.20;;;11.30;77.90;;;;;;5053710;28;20108;-79
2023/05/22 02:11:20;;;;;;;7.45;2.97;;;11.30;78.10;;;;;;5053683;28;20057;-79
2023/05/22 02:13:47;;;;;;;5.75;3.10;;;11.20;78.50;;;;;;5053702;28;20424;-79
2023/05/22 02:16:12;;;;;;;4.32;3.30;;;11.10;78.80;;;;;;5035600;28;20029;-79
2023/05/22 02:18:40;;;;;;;4.00;3.08;;;11.10;79.20;;;;;;5035602;28;20179;-79
2023/05/22 02:21:07;;;;;;;5.07;3.47;;;11.10;79.40;;;;;;5035688;28;20059;-79
2023/05/22 02:23:33;;;;;;;4.32;3.45;;;11.00;79.70;;;;;;5053408;28;20021;-79
2023/05/22 02:25:59;;;;;;;4.70;3.10;;;11.00;79.80;;;;;;5053549;28;20031;-79
2023/05/22 02:28:24;;;;;;;5.13;3.50;;;11.00;80.00;;;;;;5053432;28;20021;-80
2023/05/22 02:30:50;;;;;;;4.45;3.15;;;10.90;80.10;;;;;;5035560;28;20021;-79
2023/05/22 02:33:18;;;;;;;3.67;2.97;;;10.90;80.40;;;;;;5053340;28;20119;-80
2023/05/22 02:35:44;;;;;;;3.95;3.10;;;10.90;80.70;;;;;;5053315;28;20037;-80
2023/05/22 02:38:11;;;;;;;6.45;3.72;;;10.90;80.60;;;;;;5035469;28;20025;-80
2023/05/22 02:40:36;;;;;;;5.13;3.15;;;10.90;80.70;;;;;;5035415;28;20425;-80
2023/05/22 02:43:02;;;;;;;6.80;3.10;;;10.90;80.70;;;;;;5035418;28;20024;-80
2023/05/22 02:45:28;;;;;;;5.40;3.38;;;10.90;80.70;;;;;;5035308;28;20024;-80
2023/05/22 02:47:54;;;;;;;3.60;2.88;;;10.90;80.50;;;;;;5035271;28;20017;-80
2023/05/22 02:50:19;;;;;;;4.05;3.25;;;10.90;80.20;;;;;;5035263;28;20021;-80
2023/05/22 02:52:45;;;;;;;8.65;2.90;;;10.90;79.80;;;;;;5035264;28;20017;-79
2023/05/22 02:55:11;;;;;;;5.82;3.53;;;11.00;79.90;;;;;;5051025;28;20021;-79
2023/05/22 02:57:36;;;;;;;5.05;3.10;;;11.00;80.10;;;;;;5015591;28;20032;-80
2023/05/22 03:00:05;;;;;;;4.18;3.08;;;10.90;80.10;;;;;;5015387;28;20037;-80
2023/05/22 03:02:31;;;;;;;5.35;3.28;;;10.90;80.10;;;;;;5015422;28;20391;-80
2023/05/22 03:04:59;;;;;;;4.45;2.90;;;10.90;80.20;;;;;;5015504;28;20036;-79
2023/05/22 03:07:25;;;;;;;3.78;3.03;;;10.90;80.20;;;;;;5033281;28;20026;-79
2023/05/22 03:09:52;;;;;;;5.97;3.50;;;11.00;80.10;;;;;;5033321;28;20109;-80
2023/05/22 03:12:17;;;;;;;3.88;3.03;;;11.00;79.90;;;;;;5015180;28;20018;-80
2023/05/22 03:14:43;;;;;;;4.75;2.80;;;11.00;80.00;;;;;;5033084;28;20022;-79
2023/05/22 03:17:09;;;;;;;5.32;3.33;;;11.10;79.50;;;;;;5032954;28;20031;-80
2023/05/22 03:19:34;;;;;;;3.90;3.10;;;11.10;79.50;;;;;;5032981;28;20071;-80
2023/05/22 03:22:00;;;;;;;4.40;2.80;;;11.20;79.00;;;;;;5032882;28;20037;-79
2023/05/22 03:24:26;;;;;;;3.97;3.13;;;11.20;78.60;;;;;;5015085;28;20482;-80
2023/05/22 03:26:51;;;;;;;4.53;3.65;;;11.30;78.60;;;;;;5032804;28;20068;-79
2023/05/22 03:29:17;;;;;;;7.47;4.10;;;11.40;78.10;;;;;;5041680;28;20068;-79
2023/05/22 03:31:43;;;;;;;5.63;2.83;;;11.50;77.60;;;;;;5050613;28;20031;-79
2023/05/22 03:34:08;;;;;;;3.92;2.78;;;11.60;77.00;;;;;;5031537;28;20027;-79
2023/05/22 03:36:34;;;;;;;5.47;3.38;;;11.70;76.30;;;;;;5032781;28;20033;-80
2023/05/22 03:39:01;;;;;;;4.00;3.20;;;11.90;75.70;;;;;;5034657;28;20147;-79
2023/05/22 03:41:26;;;;;;;4.10;2.55;;;12.00;74.90;;;;;;5052504;28;20090;-79
2023/05/22 03:43:52;;;;;;;5.68;3.20;;;12.20;74.20;;;;;;5052220;28;20529;-79
2023/05/22 03:46:17;;;;;;;3.03;2.65;;;12.30;74.00;;;;;;5034743;28;20111;-79
2023/05/22 03:48:43;;;;;;;4.53;3.13;;;12.40;73.20;;;;;;5052706;28;20032;-80
2023/05/22 03:51:08;;;;;;;4.65;2.65;;;12.60;72.60;;;;;;5034876;28;20029;-79
2023/05/22 03:53:34;;;;;;;4.35;3.35;;;12.70;72.10;;;;;;5034122;28;20478;-79
2023/05/22 03:56:00;;;;;;;3.30;2.92;;;12.80;71.50;;;;;;5034759;28;20483;-80
2023/05/22 03:58:25;;;;;;;5.05;3.17;;;12.80;71.00;;;;;;5051979;28;20025;-79
2023/05/22 04:00:57;;;;;;;13.88;3.75;;;13.00;70.70;;;;;;5051893;28;20147;-80
2023/05/22 04:03:23;;;;;;;9.05;3.58;;;13.00;70.60;;;;;;5034675;28;20017;-80
2023/05/22 04:05:48;;;;;;;5.35;2.85;;;13.10;70.40;;;;;;5052888;28;20036;-79
2023/05/22 04:08:14;;;;;;;5.22;2.95;;;13.20;70.20;;;;;;5037153;28;20063;-80
2023/05/22 04:10:41;;;;;;;3.40;2.72;;;13.20;70.10;;;;;;5037074;28;20020;-80
2023/05/22 04:13:06;;;;;;;4.72;3.00;;;13.20;70.20;;;;;;5036565;28;20021;-80
2023/05/22 04:15:32;;;;;;;5.65;3.03;;;13.30;70.20;;;;;;5037144;28;20021;-80
2023/05/22 04:17:59;;;;;;;4.90;2.72;;;13.40;70.10;;;;;;5059553;28;20044;-80
2023/05/22 04:20:24;;;;;;;8.55;3.30;;;13.40;69.90;;;;;;5037743;28;20454;-80
2023/05/22 04:22:50;;;;;;;3.33;3.03;;;13.50;69.80;;;;;;5039003;28;20104;-80
2023/05/22 04:25:16;;;;;;;4.50;2.92;;;13.60;69.20;;;;;;5038336;28;20021;-81
2023/05/22 04:27:41;;;;;;;5.88;3.20;;;13.60;70.20;;;;;;5055066;28;20032;-80
2023/05/22 04:30:09;;;;;;;4.57;3.20;;;13.60;69.40;;;;;;5038411;28;20021;-80
2023/05/22 04:32:35;;;;;;;9.30;3.80;;;13.60;69.30;;;;;;5054810;28;20032;-81
2023/05/22 04:35:01;;;;;;;4.60;2.65;;;13.60;69.20;;;;;;5037450;28;20082;-81
2023/05/22 04:37:30;;;;;;;5.03;3.00;;;13.80;69.70;;;;;;5055399;28;20071;-80
2023/05/22 04:40:05;;;;;;;6.95;3.72;;;13.80;68.80;;;;;;5037399;28;20497;-81
2023/05/22 04:42:30;;;;;;;4.65;2.92;;;13.70;68.70;;;;;;5032887;28;20028;-80
2023/05/22 04:44:58;;;;;;;4.38;3.03;;;13.90;69.60;;;;;;5038136;28;20133;-79
2023/05/22 04:47:24;;;;;;;4.00;3.00;;;13.90;69.30;;;;;;5054656;28;20036;-79
2023/05/22 04:49:50;;;;;;;4.35;3.05;;;13.90;68.90;;;;;;5036868;28;20021;-79
2023/05/22 04:52:16;;;;;;;5.20;3.38;;;14.00;69.60;;;;;;5065853;28;20103;-80
2023/05/22 04:54:43;;;;;;;4.10;3.25;;;14.10;69.00;;;;;;5037663;28;20074;-79
2023/05/22 04:57:08;;;;;;;5.68;3.30;;;14.10;69.30;;;;;;5055085;28;20052;-80
2023/05/22 04:59:41;;;;;;;7.53;3.90;;;14.10;69.30;;;;;;5054633;28;20061;-80
2023/05/22 05:02:07;;;;;;;;;;;14.20;68.40;;;;;;5054490;28;20032;-79
2023/05/22 05:04:33;;;;;;;6.60;3.70;;;14.20;69.10;;;;;;5056573;28;19905;-80
2023/05/22 05:06:59;;;;;;;4.50;3.45;;;14.20;68.60;;;;;;5033438;28;20021;-80
2023/05/22 05:09:24;;;;;;;3.30;3.00;;;14.20;68.70;;;;;;5025084;28;20027;-79
2023/05/22 05:11:51;;;;;;;3.90;3.45;;;14.20;69.10;;;;;;5055132;28;20021;-80
2023/05/22 05:14:17;;;;;;;3.53;3.00;;;14.30;69.80;;;;;;5070902;28;20070;-80
2023/05/22 05:16:42;;;;;;;8.05;3.30;;;14.30;68.80;;;;;;5037077;28;20018;-80
2023/05/22 05:19:08;;;;;;;4.05;3.20;;;14.40;69.70;;;;;;5061027;28;20033;-80
2023/05/22 05:21:34;;;;;;;4.18;3.40;;;14.40;68.50;;;;;;5051500;28;20028;-79
2023/05/22 05:24:00;;;;;;;4.72;3.53;;;14.40;68.20;;;;;;5033216;28;20043;-80
2023/05/22 05:26:26;;;;;;;4.05;3.17;;;14.40;68.60;;;;;;5050790;28;20041;-80
2023/05/22 05:28:52;;;;;;;4.35;3.22;;;14.60;68.70;;;;;;5051772;28;20433;-79
2023/05/22 05:31:19;;;;;;;6.40;3.20;;;14.70;69.40;;;;;;5034712;28;20017;-80
2023/05/22 05:33:45;;;;;;;5.45;3.03;;;14.80;68.10;;;;;;5032996;28;20021;-79
2023/05/22 05:36:13;;;;;;;5.53;3.10;;;15.00;68.20;;;;;;5053260;28;20047;-80
2023/05/22 05:38:39;;;;;;;5.32;3.10;;;15.10;67.50;;;;;;5036662;28;20025;-80
2023/05/22 05:41:05;;;;;;;5.28;3.20;;;15.20;66.80;;;;;;5035753;28;20032;-79
2023/05/22 05:43:31;;;;;;;9.30;3.00;;;15.30;65.90;;;;;;5036073;28;20028;-80
2023/05/22 05:45:57;;;;;;;4.75;3.15;;;15.40;65.50;;;;;;5035265;28;20029;-81
2023/05/22 05:48:22;;;;;;;3.70;3.30;;;15.40;65.40;;;;;;5036019;28;20021;-81
2023/05/22 05:50:48;;;;;;;4.75;3.60;;;15.50;64.50;;;;;;5035558;28;20028;-79
2023/05/22 05:53:14;;;;;;;5.72;2.55;;;15.70;65.10;;;;;;5035842;28;20120;-79
2023/05/22 05:55:40;;;;;;;3.47;3.17;;;15.80;65.30;;;;;;5034309;28;20017;-80
2023/05/22 05:58:05;;;;;;;3.55;3.00;;;15.90;64.80;;;;;;5032719;28;20047;-80
2023/05/22 06:00:31;;;;;;;7.05;3.28;;;16.00;64.00;;;;;;5033688;28;20041;-81
2023/05/22 06:02:58;;;;;;;6.75;3.25;;;16.10;63.70;;;;;;5033738;28;20107;-80
2023/05/22 06:05:25;;;;;;;5.53;3.13;;;16.20;63.90;;;;;;5052128;28;20028;-80
2023/05/22 06:07:51;;;;;;;5.95;3.15;;;16.50;63.50;;;;;;5052258;28;20025;-80
2023/05/22 06:10:16;;;;;;;9.27;3.25;;;16.50;61.40;;;;;;5051677;28;20064;-81
2023/05/22 06:12:42;;;;;;;6.53;3.58;;;16.70;62.90;;;;;;5051487;28;20025;-79
2023/05/22 06:15:08;;;;;;;5.80;3.65;;;16.90;62.20;;;;;;5033520;28;20021;-79
2023/05/22 06:17:34;;;;;;;5.97;2.85;;;17.10;62.60;;;;;;5033771;28;20017;-80
2023/05/22 06:20:00;;;;;;;5.57;3.35;;;17.20;62.30;;;;;;5052144;28;20032;-79
2023/05/22 06:22:25;;;;;;;5.53;2.85;;;17.30;61.40;;;;;;5053016;28;20021;-79
2023/05/22 06:24:54;;;;;;;5.60;3.17;;;17.40;61.20;;;;;;5053137;28;20367;-79
2023/05/22 06:27:26;;;;;;;6.88;3.30;;;17.50;60.60;;;;;;5053192;28;20100;-79
2023/05/22 06:29:51;;;;;;;5.32;3.35;;;17.50;60.20;;;;;;5052692;28;20028;-81
2023/05/22 06:32:17;;;;;;;7.88;3.50;;;17.60;60.40;;;;;;5035333;28;20021;-79
2023/05/22 06:34:45;;;;;;;12.23;3.88;;;17.60;60.60;;;;;;5035292;28;20488;-79
2023/05/22 06:37:11;;;;;;;6.00;4.32;;;17.70;60.00;;;;;;5035127;28;20021;-79
2023/05/22 06:39:37;;;;;;;8.00;3.20;;;17.80;58.00;;;;;;5035183;28;20025;-79
2023/05/22 06:42:03;;;;;;;6.93;2.97;;;18.00;58.00;;;;;;5053045;28;20041;-81
2023/05/22 06:44:29;;;;;;;5.05;2.67;;;18.30;57.50;;;;;;5035325;28;20047;-79
2023/05/22 06:46:55;;;;;;;6.32;3.33;;;18.50;56.70;;;;;;5035141;28;20036;-81
2023/05/22 06:49:20;;;;;;;5.07;3.40;;;18.50;55.70;;;;;;5052968;28;20017;-79
2023/05/22 06:51:46;;;;;;;5.10;3.15;;;18.60;54.80;;;;;;5052742;28;20103;-79
2023/05/22 06:54:12;;;;;;;6.68;2.90;;;18.70;53.80;;;;;;5052800;28;20389;-79
2023/05/22 06:56:41;;;;;;;5.00;3.03;;;18.70;52.90;;;;;;5034685;28;20135;-79
2023/05/22 06:59:06;;;;;;;9.80;3.55;;;18.80;52.70;;;;;;5035661;28;20071;-81
2023/05/22 07:01:32;;;;;;;7.40;3.13;;;18.90;53.20;;;;;;5048293;28;20033;-81
2023/05/22 07:04:03;;;;;;;4.05;2.70;;;19.00;52.20;;;;;;5051773;28;20529;-81
2023/05/22 07:06:32;;;;;;;6.80;2.92;;;19.00;52.60;;;;;;5051902;28;20017;-81
2023/05/22 07:08:58;;;;;;;7.10;2.58;;;19.10;52.40;;;;;;5051639;28;20017;-81
2023/05/22 07:11:24;;;;;;;6.15;2.60;;;19.20;51.30;;;;;;5052911;28;20521;-81
2023/05/22 07:13:50;;;;;;;4.20;2.83;;;19.20;52.50;;;;;;5052915;28;20029;-81
2023/05/22 07:16:16;;;;;;;5.90;2.63;;;19.20;50.70;;;;;;5051626;28;20025;-81
2023/05/22 07:18:44;;;;;;;3.33;2.45;;;19.10;50.20;;;;;;5051578;28;20041;-82
2023/05/22 07:21:10;;;;;;;4.40;2.30;;;19.20;50.80;;;;;;5052987;28;20037;-81
2023/05/22 07:23:36;;;;;;;3.90;2.40;;;19.40;49.20;;;;;;5052867;28;20457;-81
2023/05/22 07:26:01;;;;;;;4.38;2.47;;;19.50;49.80;;;;;;5052764;28;20052;-81
2023/05/22 07:28:27;;;;;;;5.28;2.47;;;19.60;49.40;;;;;;5051605;28;20408;-82
2023/05/22 07:30:52;;;;;;;3.58;2.30;;;19.60;48.30;;;;;;5046999;28;20424;-81
2023/05/22 07:33:18;;;;;;;3.53;2.65;;;19.70;48.40;;;;;;5025856;28;20133;-82
2023/05/22 07:35:45;;;;;;;4.15;2.58;;;19.80;48.90;;;;;;5052328;28;20021;-82
2023/05/22 07:38:10;;;;;;;6.05;2.63;;;19.80;48.50;;;;;;5044133;28;20029;-82
2023/05/22 07:40:36;;;;;;;4.85;3.00;;;19.90;49.10;;;;;;5053768;28;20033;-81
2023/05/22 07:43:01;;;;;;;6.00;2.83;;;19.80;48.70;;;;;;5054294;28;20055;-81
2023/05/22 07:45:27;;;;;;;5.03;2.60;;;20.00;49.30;;;;;;5054077;28;20402;-81
2023/05/22 07:47:53;;;;;;;3.63;2.55;;;20.00;48.70;;;;;;5056284;28;20021;-81
2023/05/22 07:50:19;;;;;;;9.50;3.38;;;20.20;49.10;;;;;;5055067;28;20028;-81
2023/05/22 07:52:44;;;;;;;2.60;2.40;;;20.00;48.00;;;;;;5054947;28;20402;-81
2023/05/22 07:55:10;;;;;;;5.72;2.40;;;20.10;47.40;;;;;;5054921;28;20021;-80
2023/05/22 07:57:37;;;;;;;3.40;2.80;;;20.10;47.50;;;;;;5054725;28;20021;-81
2023/05/22 08:00:21;;;;;;;5.25;3.13;;;20.00;48.70;;;;;;5056226;28;20029;-80
2023/05/22 08:02:47;;;;;;;4.05;2.38;;;19.90;48.60;;;;;;5055034;28;20174;-80
2023/05/22 08:05:12;;;;;;;4.18;2.33;;;19.80;46.70;;;;;;5054917;28;20056;-81
2023/05/22 08:07:38;;;;;;;2.50;2.30;;;19.90;47.20;;;;;;5056026;28;20075;-81
2023/05/22 08:10:12;;;;;;;4.78;2.35;;;19.90;46.90;;;;;;5054759;28;20568;-81
2023/05/22 08:12:37;;;;;;;6.20;2.47;;;19.90;47.10;;;;;;5056157;28;20470;-81
2023/05/22 08:15:03;;;;;;;4.55;2.92;;;19.90;46.60;;;;;;5054752;28;20053;-82
2023/05/22 08:17:29;;;;;;;4.53;2.22;;;19.70;47.40;;;;;;5054463;28;20022;-80
2023/05/22 08:19:55;;;;;;;4.75;3.25;;;19.60;45.90;;;;;;5067179;28;20485;-81
2023/05/22 08:22:20;;;;;;;5.45;2.92;;;19.50;47.90;;;;;;5055488;28;20036;-81
2023/05/22 08:24:46;;;;;;;3.15;2.17;;;19.40;49.30;;;;;;5037662;28;20474;-80
2023/05/22 08:27:11;;;;;;;2.95;2.58;;;19.20;50.40;;;;;;5055589;28;20017;-80
2023/05/22 08:29:37;;;;;;;3.95;2.92;;;19.00;49.30;;;;;;5055573;28;20021;-81
2023/05/22 08:32:02;;;;;;;3.35;2.35;;;19.10;49.50;;;;;;5032344;28;20031;-81
2023/05/22 08:34:28;;;;;;;4.18;3.10;;;19.30;50.70;;;;;;5055071;28;20025;-81
2023/05/22 08:36:54;;;;;;;3.80;3.22;;;19.40;50.40;;;;;;5035775;28;20029;-80
2023/05/22 08:39:19;;;;;;;6.30;2.80;;;19.60;50.30;;;;;;5037080;28;20124;-80
2023/05/22 08:41:46;;;;;;;6.00;2.67;;;19.90;51.70;;;;;;5037511;28;20052;-81
2023/05/22 08:44:12;;;;;;;4.93;2.53;;;20.00;50.10;;;;;;5037746;28;20032;-80
2023/05/22 08:46:40;;;;;;;3.08;2.45;;;20.30;50.90;;;;;;5055413;28;20021;-82
2023/05/22 08:49:07;;;;;;;4.40;2.80;;;20.40;49.90;;;;;;5036195;28;20028;-81
2023/05/22 08:51:38;;;;;;;4.43;3.05;;;20.50;49.70;;;;;;5034693;28;20024;-81
2023/05/22 08:54:07;;;;;;;4.72;2.40;;;20.50;50.70;;;;;;5035415;28;20505;-82
2023/05/22 08:56:34;;;;;;;4.45;2.92;;;20.50;48.70;;;;;;5035257;28;20025;-81
2023/05/22 08:59:00;;;;;;;4.55;2.85;;;20.40;48.50;;;;;;5035225;28;20371;-81
2023/05/22 09:01:28;;;;;;;4.53;2.45;;;20.60;47.90;;;;;;5052943;28;20090;-81
2023/05/22 09:03:58;;;;;;;3.67;2.35;;;20.60;47.70;;;;;;5053973;28;20052;-81
2023/05/22 09:06:24;;;;;;;3.33;2.72;;;20.70;47.40;;;;;;5037428;28;20021;-81
2023/05/22 09:08:50;;;;;;;7.95;3.03;;;20.60;47.40;;;;;;5037165;28;20117;-82
2023/05/22 09:11:16;;;;;;;3.97;2.50;;;20.60;46.20;;;;;;5037117;28;20024;-81
2023/05/22 09:13:43;;;;;;;5.05;2.58;;;20.60;46.00;;;;;;5036937;28;20075;-81
2023/05/22 09:16:11;;;;;;;6.18;2.90;;;20.60;46.40;;;;;;5036977;28;20021;-81
2023/05/22 09:18:38;;;;;;;6.38;2.72;;;20.50;47.10;;;;;;5027920;28;20053;-81
2023/05/22 09:21:05;;;;;;;3.58;2.97;;;20.30;48.60;;;;;;5034707;28;20041;-81
2023/05/22 09:23:31;;;;;;;4.63;3.10;;;20.40;47.90;;;;;;5034761;28;20071;-81
2023/05/22 09:25:58;;;;;;;2.95;2.47;;;20.40;48.10;;;;;;5016956;28;20021;-83
2023/05/22 09:28:24;;;;;;;4.40;3.08;;;20.40;48.40;;;;;;5034699;28;20143;-81
2023/05/22 09:30:51;;;;;;;5.10;3.35;;;20.50;48.80;;;;;;5016945;28;20025;-80
2023/05/22 09:33:18;;;;;;;6.05;3.03;;;20.50;47.90;;;;;;5034685;28;20487;-80
2023/05/22 09:35:46;;;;;;;5.22;2.67;;;20.50;47.90;;;;;;5034492;28;20018;-80
2023/05/22 09:38:12;;;;;;;3.65;3.15;;;20.60;48.00;;;;;;5016738;28;20107;-80
2023/05/22 09:40:39;;;;;;;5.55;2.70;;;20.70;47.20;;;;;;5034378;28;20427;-80
2023/05/22 09:43:09;;;;;;;2.88;2.60;;;20.80;46.90;;;;;;5034458;28;20133;-80
2023/05/22 09:45:35;;;;;;;5.45;3.20;;;20.90;47.80;;;;;;5016644;28;20021;-80
2023/05/22 09:48:03;;;;;;;4.88;3.10;;;20.90;48.30;;;;;;5034259;28;20021;-81
2023/05/22 09:50:28;;;;;;;9.80;4.10;;;20.90;48.40;;;;;;5034007;28;20017;-80
2023/05/22 09:52:55;;;;;;;9.60;3.22;;;20.90;48.20;;;;;;5034207;28;20121;-81
2023/05/22 09:55:22;;;;;;;5.90;2.75;;;20.80;47.30;;;;;;5034156;28;20025;-81
2023/05/22 09:57:51;;;;;;;5.82;2.88;;;20.60;46.90;;;;;;5016375;28;20025;-80
2023/05/22 10:00:18;;;;;;;3.58;2.88;;;20.50;47.20;;;;;;5034039;28;20105;-81
2023/05/22 10:02:46;;;;;;;7.32;3.03;;;20.50;47.70;;;;;;5016206;28;20391;-79
2023/05/22 10:05:20;;;;;;;5.25;2.75;;;20.40;48.40;;;;;;5033317;28;20497;-80
2023/05/22 10:07:49;;;;;;;4.10;2.72;;;20.30;47.00;;;;;;5034039;28;20083;-79
2023/05/22 10:10:23;;;;;;;5.25;3.40;;;20.30;46.80;;;;;;5033953;28;20025;-81
2023/05/22 10:13:07;;;;;;;10.20;2.60;;;20.30;46.90;;;;;;5016178;28;20021;-80
2023/05/22 10:15:34;;;;;;;4.47;2.80;;;20.20;47.50;;;;;;5016065;28;20076;-79
2023/05/22 10:18:00;;;;;;;3.58;2.60;;;20.30;47.70;;;;;;5015835;28;20405;-79
2023/05/22 10:20:27;;;;;;;2.90;2.70;;;20.30;46.10;;;;;;5033628;28;20029;-80
2023/05/22 10:22:53;;;;;;;5.55;2.35;;;20.30;47.40;;;;;;5015807;28;20032;-81
2023/05/22 10:25:22;;;;;;;5.85;3.17;;;20.20;47.60;;;;;;5015825;28;20022;-80
2023/05/22 10:27:50;;;;;;;5.70;2.67;;;20.40;48.40;;;;;;5033593;28;20026;-80
2023/05/22 10:30:35;;;;;;;5.72;2.47;;;20.60;47.70;;;;;;5033546;28;20117;-80
2023/05/22 10:33:19;;;;;;;4.03;3.15;;;20.70;48.40;;;;;;5033512;28;20025;-80
2023/05/22 10:35:56;;;;;;;5.28;2.75;;;20.70;47.90;;;;;;5015809;28;20048;-81
2023/05/22 10:38:27;;;;;;;3.42;3.08;;;20.60;47.30;;;;;;5015726;28;20022;-81
2023/05/22 10:40:54;;;;;;;2.85;2.65;;;20.80;46.90;;;;;;5015778;28;20576;-79
2023/05/22 10:43:21;;;;;;;3.70;2.30;;;20.80;46.50;;;;;;5015654;28;20112;-80
2023/05/22 10:45:47;;;;;;;3.65;2.25;;;20.80;45.50;;;;;;5015656;28;20022;-80
2023/05/22 10:48:13;;;;;;;4.82;2.60;;;20.80;46.70;;;;;;5015705;28;20383;-80
2023/05/22 10:50:39;;;;;;;5.63;2.50;;;20.90;45.60;;;;;;5015376;28;20025;-79
2023/05/22 10:53:24;;;;;;;3.42;2.50;;;20.80;45.30;;;;;;5015596;28;20022;-80
2023/05/22 10:55:52;;;;;;;5.47;2.83;;;20.60;44.60;;;;;;5033305;28;20029;-81
2023/05/22 10:58:25;;;;;;;2.95;2.42;;;20.40;44.30;;;;;;5033208;28;20032;-81
2023/05/22 11:01:12;;;;;;;4.10;2.95;;;20.60;45.50;;;;;;5015445;28;20068;-80
2023/05/22 11:04:00;;;;;;;4.90;2.85;;;20.50;45.50;;;;;;5017391;28;20033;-80
2023/05/22 11:07:03;;;;;;;3.85;2.83;;;20.60;46.90;;;;;;5015408;28;20025;-82
2023/05/22 11:09:29;;;;;;;;;;;20.90;49.30;;;;;;4966367;28;20391;-81
2023/05/22 11:12:23;;;;;;;4.03;3.15;;;20.80;47.30;;;;;;5032882;28;19916;-80
2023/05/22 11:15:05;;;;;;;5.05;3.08;;;21.10;47.10;;;;;;5015861;28;20379;-80
2023/05/22 11:17:38;;;;;;;4.05;3.42;;;21.20;46.60;;;;;;5019474;28;20029;-79
2023/05/22 11:20:19;;;;;;;4.10;2.65;;;21.20;46.90;;;;;;5019064;28;20037;-81
2023/05/22 11:22:59;;;;;;;3.38;2.58;;;21.20;46.00;;;;;;5018894;28;20058;-79
2023/05/22 11:25:26;;;;;;;6.00;2.97;;;21.20;44.90;;;;;;5019246;28;20040;-80
2023/05/22 11:27:53;;;;;;;4.43;2.70;;;21.20;45.40;;;;;;5019239;28;20032;-79
2023/05/22 11:30:23;;;;;;;3.97;2.53;;;21.30;45.00;;;;;;5019077;28;20536;-79
2023/05/22 11:32:49;;;;;;;3.75;3.05;;;21.30;45.80;;;;;;5019112;28;20463;-79
2023/05/22 11:35:19;;;;;;;6.10;3.05;;;21.20;45.40;;;;;;5036741;28;20045;-80
2023/05/22 11:37:46;;;;;;;3.78;2.50;;;21.10;45.10;;;;;;5018910;28;20490;-79
2023/05/22 11:40:20;;;;;;;9.40;3.10;;;21.30;45.10;;;;;;5018832;28;20025;-81
2023/05/22 11:42:46;;;;;;;7.20;3.05;;;21.30;45.40;;;;;;5019087;28;20144;-82
2023/05/22 11:45:12;;;;;;;9.52;3.30;;;21.40;45.20;;;;;;5018834;28;20017;-81
2023/05/22 11:47:39;;;;;;;7.43;3.13;;;21.40;44.50;;;;;;5018753;28;20091;-82
2023/05/22 11:50:08;;;;;;;4.43;2.83;;;21.40;45.00;;;;;;5018682;28;20042;-79
2023/05/22 11:52:35;;;;;;;7.28;3.08;;;21.30;45.40;;;;;;5036436;28;20041;-80
2023/05/22 11:55:01;;;;;;;4.30;2.80;;;21.40;45.50;;;;;;5036325;28;20021;-80
2023/05/22 11:57:27;;;;;;;4.43;3.20;;;21.50;45.40;;;;;;5018528;28;20024;-80
2023/05/22 11:59:53;;;;;;;8.85;3.13;;;21.40;45.50;;;;;;5036316;28;20478;-79
2023/05/22 12:02:19;;;;;;;3.75;2.60;;;21.50;45.10;;;;;;5036179;28;20108;-80
2023/05/22 12:04:45;;;;;;;3.67;2.92;;;21.50;43.60;;;;;;5018407;28;20426;-81
2023/05/22 12:07:11;;;;;;;3.35;2.63;;;21.30;46.00;;;;;;5036356;28;20014;-80
2023/05/22 12:09:41;;;;;;;4.57;3.22;;;21.40;46.70;;;;;;5018403;28;20474;-79
2023/05/22 12:12:10;;;;;;;4.70;3.22;;;21.40;46.60;;;;;;5018461;28;20033;-80
2023/05/22 12:14:36;;;;;;;3.65;2.92;;;21.40;45.80;;;;;;5018323;28;20399;-79
2023/05/22 12:17:05;;;;;;;3.05;2.53;;;21.30;45.10;;;;;;5035991;28;20035;-80
2023/05/22 12:19:31;;;;;;;4.53;2.53;;;21.30;45.60;;;;;;5034491;28;20398;-79
2023/05/22 12:21:58;;;;;;;3.17;2.88;;;21.40;45.20;;;;;;5055676;28;20064;-80
2023/05/22 12:24:24;;;;;;;6.43;3.72;;;21.60;46.30;;;;;;5038133;28;20056;-80
2023/05/22 12:26:53;;;;;;;4.10;2.70;;;21.70;47.20;;;;;;5036957;28;20021;-80
2023/05/22 12:29:22;;;;;;;4.40;2.83;;;21.40;44.00;;;;;;5037805;28;20040;-80
2023/05/22 12:31:48;;;;;;;6.65;3.38;;;21.50;44.60;;;;;;5055567;28;20032;-79
2023/05/22 12:34:17;;;;;;;4.97;2.28;;;21.60;44.90;;;;;;5037814;28;20390;-80
2023/05/22 12:36:45;;;;;;;5.78;3.10;;;21.70;45.00;;;;;;5037785;28;20378;-80
2023/05/22 12:39:21;;;;;;;5.30;2.67;;;21.70;45.10;;;;;;5055631;28;20029;-80
2023/05/22 12:41:46;;;;;;;5.15;3.30;;;21.60;44.50;;;;;;5037547;28;20036;-79
2023/05/22 12:44:15;;;;;;;6.32;2.80;;;21.50;45.00;;;;;;5037584;28;20073;-79
2023/05/22 12:46:41;;;;;;;4.03;2.80;;;21.60;45.30;;;;;;5037506;28;20100;-80
2023/05/22 12:49:06;;;;;;;3.60;3.13;;;21.60;45.90;;;;;;5055459;28;20112;-80
2023/05/22 12:51:32;;;;;;;5.32;2.80;;;21.60;46.50;;;;;;5037412;28;20110;-80